Aviation Digital Data Service (ADDS)

Output produced by METARs form (1208 UTC 15 December 2017)
found at http://aviationweather.gov/adds/metars/
 
KLFT 151153Z 02011KT 10SM CLR 09/04 A3012 RMK AO2 SLP199 T00890039 10111 20089 53010